createdAt,value
2019-02-26T00:03:45.157Z,5.74
2019-02-26T00:09:40.184Z,5.28
2019-02-26T00:15:35.728Z,4.28
2019-02-26T00:21:31.006Z,7
2019-02-26T00:27:26.184Z,7.78
2019-02-26T00:33:22.142Z,5.76
2019-02-26T00:39:15.165Z,7.13
2019-02-26T00:45:10.204Z,6.27
2019-02-26T00:51:05.243Z,6.46
2019-02-26T00:57:01.566Z,6.43
2019-02-26T01:02:55.208Z,6.14
2019-02-26T01:08:50.175Z,5.71
2019-02-26T01:14:46.195Z,5.63
2019-02-26T01:20:40.197Z,4.21
2019-02-26T01:26:35.219Z,5.6
2019-02-26T01:32:30.260Z,6.13
2019-02-26T01:38:25.212Z,6.07
2019-02-26T01:44:20.215Z,5.68
2019-02-26T01:50:16.013Z,5.44
2019-02-26T01:56:10.238Z,5.07
2019-02-26T02:02:05.243Z,6.09
2019-02-26T02:08:00.219Z,5.18
2019-02-26T02:13:55.254Z,5.29
2019-02-26T02:19:50.237Z,5.19
2019-02-26T02:25:45.639Z,5.47
2019-02-26T02:31:40.316Z,5
2019-02-26T02:37:35.266Z,4.39
2019-02-26T02:43:30.247Z,5
2019-02-26T02:49:25.243Z,4.41
2019-02-26T02:55:20.238Z,3.42
2019-02-26T03:01:16.621Z,4.53
2019-02-26T03:07:10.266Z,3.54
2019-02-26T03:13:05.291Z,3.66
2019-02-26T03:19:00.281Z,4.48
2019-02-26T03:24:57.411Z,3.53
2019-02-26T03:30:50.290Z,4.58
2019-02-26T03:36:45.683Z,4.46
2019-02-26T03:42:41.439Z,3.65
2019-02-26T03:48:35.295Z,4.13
2019-02-26T03:54:30.268Z,4.81
2019-02-26T04:00:25.288Z,5.19
2019-02-26T04:06:20.294Z,4.83
2019-02-26T04:12:15.967Z,4.28
2019-02-26T04:18:10.298Z,2.55
2019-02-26T04:24:05.838Z,3.46
2019-02-26T04:30:00.322Z,3.61
2019-02-26T04:35:55.550Z,3.22
2019-02-26T04:41:50.355Z,3.12
2019-02-26T04:47:46.570Z,3.83
2019-02-26T04:53:40.321Z,3.04
2019-02-26T04:59:37.519Z,3.33
2019-02-26T05:05:31.882Z,3.18
2019-02-26T05:11:31.321Z,3.44
2019-02-26T05:17:21.780Z,2.66
2019-02-26T05:23:15.331Z,3.05
2019-02-26T05:29:10.350Z,2.93
2019-02-26T05:35:05.371Z,2.55
2019-02-26T05:41:00.358Z,2.86
2019-02-26T05:46:56.150Z,3.06
2019-02-26T05:52:55.072Z,3.03
2019-02-26T05:58:46.937Z,2.77
2019-02-26T06:04:40.933Z,2.97
2019-02-26T06:10:35.367Z,2.66
2019-02-26T06:16:31.408Z,2.48
2019-02-26T06:22:27.069Z,3.27
2019-02-26T06:28:20.584Z,3.53
2019-02-26T06:34:16.304Z,3.72
2019-02-26T06:40:10.377Z,4.04
2019-02-26T06:46:08.462Z,4.42
2019-02-26T06:52:00.389Z,7.53
2019-02-26T06:57:55.398Z,7.91
2019-02-26T07:03:50.383Z,6.35
2019-02-26T07:09:45.376Z,7.23
2019-02-26T07:15:40.427Z,7.55
2019-02-26T07:21:35.419Z,10.98
2019-02-26T07:27:31.831Z,11.44
2019-02-26T07:33:27.190Z,10.37
2019-02-26T07:39:22.546Z,11.24
2019-02-26T07:45:19.478Z,12.83
2019-02-26T07:51:10.425Z,14.67
2019-02-26T07:57:05.441Z,12.97
2019-02-26T08:03:02.092Z,14.6
2019-02-26T08:08:55.446Z,13.17
2019-02-26T08:14:50.428Z,13.67
2019-02-26T08:20:45.419Z,13.11
2019-02-26T08:26:42.797Z,11.03
2019-02-26T08:32:35.437Z,7.86
2019-02-26T08:38:30.506Z,8.08
2019-02-26T08:44:25.449Z,8.94
2019-02-26T08:50:20.450Z,7.25
2019-02-26T08:56:15.437Z,7.57
2019-02-26T09:02:10.457Z,9.32
2019-02-26T09:08:05.916Z,11.9
2019-02-26T09:14:02.159Z,10.51
2019-02-26T09:20:04.189Z,9.6
2019-02-26T09:25:54.058Z,11.71
2019-02-26T09:31:45.462Z,10.16
2019-02-26T09:37:40.458Z,9.83
2019-02-26T09:43:36.140Z,8.97
2019-02-26T09:49:32.805Z,8.52
2019-02-26T09:55:25.480Z,7.22
2019-02-26T10:01:20.514Z,7.91
2019-02-26T10:07:15.482Z,7.41
2019-02-26T10:13:10.482Z,7.59
2019-02-26T10:19:05.521Z,6.47
2019-02-26T10:25:00.525Z,4.38
2019-02-26T10:30:56.873Z,2.06
2019-02-26T10:36:51.795Z,1.6
2019-02-26T10:42:46.193Z,0.99
2019-02-26T10:48:41.474Z,1
2019-02-26T10:54:39.598Z,1.99
2019-02-26T11:00:33.841Z,1.55
2019-02-26T11:06:25.535Z,1.23
2019-02-26T11:12:22.690Z,1.35
2019-02-26T11:18:17.997Z,1.08
2019-02-26T11:24:11.229Z,1.38
2019-02-26T11:30:05.539Z,1.29
2019-02-26T11:36:00.542Z,1.33
2019-02-26T11:41:56.732Z,2.79
2019-02-26T11:47:50.548Z,1.81
2019-02-26T11:53:45.743Z,1.4
2019-02-26T11:59:42.735Z,1.46
2019-02-26T12:05:38.311Z,1.92
2019-02-26T12:11:30.586Z,1.51
2019-02-26T12:17:25.543Z,1.12
2019-02-26T12:23:22.695Z,1.21
2019-02-26T12:29:16.081Z,1.33
2019-02-26T12:35:12.023Z,2.35
2019-02-26T12:41:08.267Z,4.56
2019-02-26T12:47:00.610Z,6.61
2019-02-26T12:52:57.012Z,8.99
2019-02-26T12:58:51.887Z,3.09
2019-02-26T13:04:47.919Z,2.05
2019-02-26T13:10:42.274Z,1.4
2019-02-26T13:16:35.618Z,1.3
2019-02-26T13:22:30.590Z,1.16
2019-02-26T13:28:29.473Z,1.67
2019-02-26T13:34:20.578Z,1.33
2019-02-26T13:40:15.628Z,1.5
2019-02-26T13:46:10.602Z,1.27
2019-02-26T13:52:05.609Z,1.22
2019-02-26T13:58:00.635Z,1.1
2019-02-26T14:03:55.625Z,1.29
2019-02-26T14:09:50.629Z,3.6
2019-02-26T14:15:45.613Z,2.61
2019-02-26T14:21:40.625Z,1.49
2019-02-26T14:27:35.625Z,1.72
2019-02-26T14:33:30.617Z,1.42
2019-02-26T14:39:25.628Z,2.07
2019-02-26T14:45:20.683Z,1.39
2019-02-26T14:51:16.336Z,1.13
2019-02-26T14:57:10.653Z,1.18
2019-02-26T15:03:05.647Z,1.16
2019-02-26T15:09:00.646Z,1.27
2019-02-26T15:14:55.645Z,1.02
2019-02-26T15:20:50.676Z,1.05
2019-02-26T15:26:45.662Z,1.19
2019-02-26T15:32:40.664Z,1.39
2019-02-26T15:38:35.712Z,1.21
2019-02-26T15:44:30.672Z,4.01
2019-02-26T15:50:25.702Z,4.4
2019-02-26T15:56:20.772Z,4.37
2019-02-26T16:02:15.670Z,2.7
2019-02-26T16:08:10.684Z,2.29
2019-02-26T16:14:05.678Z,2.09
2019-02-26T16:20:00.675Z,2.67
2019-02-26T16:25:55.674Z,2.96
2019-02-26T16:31:50.715Z,4.79
2019-02-26T16:37:45.763Z,5.38
2019-02-26T16:43:40.698Z,4.2
2019-02-26T16:49:35.697Z,5.7
2019-02-26T16:55:30.707Z,5.36
2019-02-26T17:01:25.713Z,4.02
2019-02-26T17:07:20.728Z,5.07
2019-02-26T17:13:15.719Z,4.3
2019-02-26T17:19:10.736Z,6.87
2019-02-26T17:25:05.729Z,5.74
2019-02-26T17:31:00.820Z,4.23
2019-02-26T17:36:55.744Z,5.73
2019-02-26T17:42:51.129Z,9.6
2019-02-26T17:48:45.741Z,8.28
2019-02-26T17:54:40.770Z,8.27
2019-02-26T18:00:35.759Z,6.72
2019-02-26T18:06:30.770Z,8.59
2019-02-26T18:12:25.747Z,7.66
2019-02-26T18:18:20.751Z,5.86
2019-02-26T18:24:16.722Z,6.1
2019-02-26T18:30:10.801Z,3.73
2019-02-26T18:36:05.780Z,5.65
2019-02-26T18:42:00.775Z,4.6
2019-02-26T18:47:55.771Z,4.74
2019-02-26T18:53:50.791Z,13.15
2019-02-26T18:59:45.777Z,12.65
2019-02-26T19:05:40.790Z,15.62
2019-02-26T19:11:35.773Z,11.54
2019-02-26T19:17:30.784Z,10.38
2019-02-26T19:23:25.789Z,9.52
2019-02-26T19:29:20.802Z,11.75
2019-02-26T19:35:15.799Z,7.47
2019-02-26T19:41:12.563Z,5.96
2019-02-26T19:47:05.831Z,7.68
2019-02-26T19:53:02.433Z,4.47
2019-02-26T19:58:55.830Z,4.81
2019-02-26T20:04:50.812Z,6.75
2019-02-26T20:10:48.684Z,6.45
2019-02-26T20:16:40.818Z,4.87
2019-02-26T20:22:35.845Z,6.94
2019-02-26T20:28:30.837Z,6.67
2019-02-26T20:34:25.813Z,6.06
2019-02-26T20:40:20.828Z,6.81
2019-02-26T20:46:15.879Z,5.84
2019-02-26T20:52:10.855Z,10.01
2019-02-26T20:58:05.909Z,17.57
2019-02-26T21:04:00.870Z,8.49
2019-02-26T21:10:03.442Z,10.23
2019-02-26T21:15:50.871Z,7.21
2019-02-26T21:21:48.811Z,9.17
2019-02-26T21:27:40.861Z,9.27
2019-02-26T21:33:35.865Z,8.76
2019-02-26T21:39:30.898Z,9.16
2019-02-26T21:45:25.838Z,8.16
2019-02-26T21:51:20.904Z,7.84
2019-02-26T21:57:15.905Z,6.2
2019-02-26T22:03:10.885Z,5.58
2019-02-26T22:09:05.880Z,5.82
2019-02-26T22:15:00.874Z,5.46
2019-02-26T22:20:55.887Z,5.15
2019-02-26T22:26:51.021Z,5.12
2019-02-26T22:32:45.882Z,5.39
2019-02-26T22:38:40.930Z,5.55
2019-02-26T22:44:35.892Z,5.8
2019-02-26T22:50:30.916Z,5.06
2019-02-26T22:56:25.903Z,4.55
2019-02-26T23:02:20.925Z,4.84
2019-02-26T23:08:15.913Z,4.41
2019-02-26T23:14:10.892Z,4.64
2019-02-26T23:20:07.535Z,5.66
2019-02-26T23:26:00.959Z,6.47
2019-02-26T23:31:55.958Z,6.22
2019-02-26T23:37:50.926Z,6.7
2019-02-26T23:43:46.068Z,6.84
2019-02-26T23:49:40.975Z,5.77
2019-02-26T23:55:35.984Z,5.58
